createdAt,value
2018-06-08T00:00:59.876Z,20.39
2018-06-08T00:02:00.058Z,20.14
2018-06-08T00:03:00.243Z,20.16
2018-06-08T00:04:00.447Z,20.22
2018-06-08T00:05:00.605Z,20.25
2018-06-08T00:06:00.795Z,20.40
2018-06-08T00:07:00.976Z,20.28
2018-06-08T00:08:01.161Z,20.39
2018-06-08T00:09:01.583Z,20.39
2018-06-08T00:10:01.530Z,20.43
2018-06-08T00:11:01.708Z,20.52
2018-06-08T00:12:01.888Z,20.51
2018-06-08T00:13:02.080Z,20.48
2018-06-08T00:14:02.254Z,20.50
2018-06-08T00:15:02.444Z,20.58
2018-06-08T00:16:02.624Z,20.51
2018-06-08T00:17:02.802Z,20.48
2018-06-08T00:18:02.991Z,20.50
2018-06-08T00:19:03.176Z,20.58
2018-06-08T00:20:03.360Z,20.60
2018-06-08T00:21:03.543Z,20.52
2018-06-08T00:22:03.728Z,20.51
2018-06-08T00:23:03.904Z,20.59
2018-06-08T00:24:04.088Z,20.60
2018-06-08T00:25:04.274Z,20.66
2018-06-08T00:26:04.479Z,20.58
2018-06-08T00:27:04.642Z,20.55
2018-06-08T00:28:04.822Z,20.59
2018-06-08T00:29:05.001Z,20.59
2018-06-08T00:30:05.188Z,20.62
2018-06-08T00:31:05.368Z,20.56
2018-06-08T00:32:05.567Z,20.62
2018-06-08T00:33:05.745Z,20.65
2018-06-08T00:34:05.923Z,20.74
2018-06-08T00:35:06.107Z,20.70
2018-06-08T00:36:06.293Z,20.63
2018-06-08T00:37:06.478Z,20.56
2018-06-08T00:38:06.664Z,20.51
2018-06-08T00:39:06.849Z,20.34
2018-06-08T00:40:07.035Z,20.34
2018-06-08T00:41:07.220Z,20.43
2018-06-08T00:42:07.403Z,20.44
2018-06-08T00:43:07.587Z,20.55
2018-06-08T00:44:07.771Z,20.56
2018-06-08T00:45:07.954Z,20.51
2018-06-08T00:46:08.138Z,20.60
2018-06-08T00:47:08.320Z,20.55
2018-06-08T00:48:08.499Z,20.43
2018-06-08T00:49:08.686Z,20.50
2018-06-08T00:51:09.046Z,20.44
2018-06-08T00:52:09.234Z,20.48
2018-06-08T00:53:09.413Z,20.56
2018-06-08T00:54:09.603Z,20.41
2018-06-08T00:55:09.782Z,20.55
2018-06-08T00:56:09.960Z,20.59
2018-06-08T00:57:10.425Z,20.59
2018-06-08T00:58:10.325Z,20.50
2018-06-08T00:59:10.518Z,20.59
2018-06-08T01:00:10.723Z,20.56
2018-06-08T01:01:10.886Z,20.58
2018-06-08T01:02:11.073Z,20.47
2018-06-08T01:03:11.252Z,20.52
2018-06-08T01:04:11.438Z,20.48
2018-06-08T01:05:11.616Z,20.44
2018-06-08T01:06:11.805Z,20.43
2018-06-08T01:07:11.987Z,20.40
2018-06-08T01:08:12.173Z,20.41
2018-06-08T01:09:12.362Z,20.28
2018-06-08T01:10:12.540Z,20.21
2018-06-08T01:11:12.719Z,20.28
2018-06-08T01:12:12.908Z,20.28
2018-06-08T01:13:13.095Z,20.25
2018-06-08T01:14:13.269Z,20.26
2018-06-08T01:15:13.462Z,20.22
2018-06-08T01:16:13.635Z,20.29
2018-06-08T01:17:13.812Z,20.22
2018-06-08T01:18:13.995Z,20.13
2018-06-08T01:19:14.185Z,20.18
2018-06-08T01:20:14.369Z,20.19
2018-06-08T01:21:14.805Z,20.11
2018-06-08T01:22:14.734Z,20.18
2018-06-08T01:23:14.940Z,20.16
2018-06-08T01:24:15.109Z,20.16
2018-06-08T01:25:15.286Z,20.13
2018-06-08T01:26:15.472Z,20.25
2018-06-08T01:27:15.655Z,20.14
2018-06-08T01:28:15.835Z,20.22
2018-06-08T01:29:16.018Z,20.24
2018-06-08T01:30:16.203Z,20.13
2018-06-08T01:31:16.385Z,20.10
2018-06-08T01:32:16.580Z,20.21
2018-06-08T01:33:16.756Z,20.16
2018-06-08T01:34:16.943Z,20.11
2018-06-08T01:35:17.131Z,20.11
2018-06-08T01:36:17.313Z,20.21
2018-06-08T01:37:17.499Z,20.09
2018-06-08T01:38:17.678Z,20.07
2018-06-08T01:39:17.867Z,20.10
2018-06-08T01:40:18.041Z,20.02
2018-06-08T01:41:18.227Z,19.96
2018-06-08T01:42:18.419Z,19.86
2018-06-08T01:43:18.592Z,19.77
2018-06-08T01:44:18.773Z,19.85
2018-06-08T01:45:18.968Z,19.88
2018-06-08T01:46:19.142Z,19.91
2018-06-08T01:47:19.338Z,20.04
2018-06-08T01:48:19.517Z,20.06
2018-06-08T01:49:19.704Z,20.06
2018-06-08T01:50:19.888Z,20.00
2018-06-08T01:51:20.079Z,20.00
2018-06-08T01:52:20.263Z,19.92
2018-06-08T01:53:20.442Z,20.03
2018-06-08T01:54:20.632Z,20.04
2018-06-08T01:56:20.995Z,19.94
2018-06-08T01:57:21.184Z,19.88
2018-06-08T01:58:21.354Z,19.85
2018-06-08T01:59:21.539Z,19.94
2018-06-08T02:00:21.718Z,19.96
2018-06-08T02:01:21.906Z,20.07
2018-06-08T02:02:22.092Z,20.04
2018-06-08T02:03:22.279Z,20.07
2018-06-08T02:04:22.464Z,20.07
2018-06-08T02:05:22.636Z,20.03
2018-06-08T02:06:22.821Z,20.16
2018-06-08T02:07:23.000Z,20.11
2018-06-08T02:08:23.166Z,20.10
2018-06-08T02:09:23.661Z,20.11
2018-06-08T02:10:23.546Z,20.10
2018-06-08T02:11:23.732Z,20.10
2018-06-08T02:12:23.904Z,20.00
2018-06-08T02:13:24.091Z,20.07
2018-06-08T02:14:24.265Z,20.02
2018-06-08T02:15:24.463Z,20.06
2018-06-08T02:16:24.636Z,19.94
2018-06-08T02:17:24.827Z,19.99
2018-06-08T02:18:25.005Z,19.92
2018-06-08T02:19:25.179Z,19.71
2018-06-08T02:20:25.363Z,19.88
2018-06-08T02:21:25.557Z,19.96
2018-06-08T02:22:25.729Z,19.74
2018-06-08T02:23:25.919Z,19.85
2018-06-08T02:24:26.097Z,19.76
2018-06-08T02:25:26.283Z,19.77
2018-06-08T02:26:26.732Z,19.66
2018-06-08T02:27:26.646Z,19.52
2018-06-08T02:28:26.840Z,19.59
2018-06-08T02:29:27.011Z,19.69
2018-06-08T02:30:27.208Z,19.73
2018-06-08T02:31:27.383Z,19.77
2018-06-08T02:32:27.561Z,19.77
2018-06-08T02:33:27.752Z,19.74
2018-06-08T02:34:27.945Z,19.81
2018-06-08T02:35:28.114Z,19.77
2018-06-08T02:36:28.301Z,19.74
2018-06-08T02:37:28.479Z,19.85
2018-06-08T02:38:28.679Z,19.84
2018-06-08T02:39:28.833Z,19.96
2018-06-08T02:40:29.025Z,19.92
2018-06-08T02:41:29.206Z,19.95
2018-06-08T02:42:29.396Z,19.96
2018-06-08T02:43:29.576Z,19.99
2018-06-08T02:44:29.755Z,19.99
2018-06-08T02:45:29.945Z,19.92
2018-06-08T02:46:30.117Z,19.94
2018-06-08T02:47:30.303Z,19.82
2018-06-08T02:48:30.489Z,19.64
2018-06-08T02:49:30.686Z,19.63
2018-06-08T02:50:30.866Z,19.62
2018-06-08T02:51:31.049Z,19.64
2018-06-08T02:52:31.229Z,19.74
2018-06-08T02:53:31.415Z,19.81
2018-06-08T02:54:31.591Z,19.84
2018-06-08T02:55:31.775Z,19.84
2018-06-08T02:56:31.959Z,19.84
2018-06-08T02:57:33.847Z,19.86
2018-06-08T02:58:32.280Z,19.79
2018-06-08T02:59:32.466Z,19.85
2018-06-08T03:00:32.653Z,19.71
2018-06-08T03:01:32.843Z,19.73
2018-06-08T03:02:33.014Z,19.76
2018-06-08T03:03:33.202Z,19.81
2018-06-08T03:04:33.380Z,19.79
2018-06-08T03:05:33.568Z,19.79
2018-06-08T03:06:33.751Z,19.76
2018-06-08T03:07:33.939Z,19.91
2018-06-08T03:08:34.116Z,19.96
2018-06-08T03:09:34.304Z,19.82
2018-06-08T03:10:34.487Z,19.84
2018-06-08T03:11:34.671Z,19.70
2018-06-08T03:12:34.855Z,19.71
2018-06-08T03:13:35.039Z,19.58
2018-06-08T03:14:35.211Z,19.74
2018-06-08T03:15:35.399Z,19.71
2018-06-08T03:16:35.582Z,19.81
2018-06-08T03:17:35.769Z,19.66
2018-06-08T03:18:35.954Z,19.82
2018-06-08T03:19:36.142Z,19.79
2018-06-08T03:20:36.322Z,19.69
2018-06-08T03:21:36.510Z,19.73
2018-06-08T03:22:36.698Z,19.79
2018-06-08T03:23:36.870Z,19.82
2018-06-08T03:24:37.080Z,19.82
2018-06-08T03:25:37.240Z,19.86
2018-06-08T03:26:37.425Z,19.70
2018-06-08T03:27:37.613Z,19.63
2018-06-08T03:28:37.793Z,19.64
2018-06-08T03:29:37.986Z,19.66
2018-06-08T03:30:38.170Z,19.85
2018-06-08T03:31:38.361Z,19.81
2018-06-08T03:32:38.542Z,19.82
2018-06-08T03:33:38.726Z,19.91
2018-06-08T03:34:38.945Z,19.95
2018-06-08T03:35:39.089Z,19.85
2018-06-08T03:36:39.277Z,19.91
2018-06-08T03:37:39.460Z,19.91
2018-06-08T03:38:39.640Z,19.99
2018-06-08T03:39:39.820Z,20.07
2018-06-08T03:40:40.004Z,20.02
2018-06-08T03:41:40.185Z,20.04
2018-06-08T03:42:40.380Z,20.06
2018-06-08T03:43:40.566Z,20.11
2018-06-08T03:44:40.748Z,20.13
2018-06-08T03:45:40.926Z,20.10
2018-06-08T03:46:41.110Z,20.06
2018-06-08T03:47:41.292Z,19.95
2018-06-08T03:48:41.477Z,19.99
2018-06-08T03:49:41.660Z,19.96
2018-06-08T03:50:41.846Z,19.79
2018-06-08T03:51:42.034Z,19.84
2018-06-08T03:52:42.227Z,19.94
2018-06-08T03:53:42.394Z,19.92
2018-06-08T03:54:42.587Z,19.92
2018-06-08T03:55:42.768Z,19.96
2018-06-08T03:56:42.944Z,19.85
2018-06-08T03:57:43.128Z,19.85
2018-06-08T03:58:43.312Z,19.84
2018-06-08T03:59:43.505Z,19.49
2018-06-08T04:00:43.684Z,19.58
2018-06-08T04:01:43.874Z,19.58
2018-06-08T04:02:44.050Z,19.62
2018-06-08T04:03:44.259Z,19.71
2018-06-08T04:04:44.413Z,19.66
2018-06-08T04:05:44.606Z,19.47
2018-06-08T04:06:44.778Z,19.49
2018-06-08T04:07:44.974Z,19.48
2018-06-08T04:08:45.166Z,19.51
2018-06-08T04:09:45.345Z,19.52
2018-06-08T04:10:45.525Z,19.44
2018-06-08T04:11:45.710Z,19.49
2018-06-08T04:12:45.900Z,19.56
2018-06-08T04:13:46.091Z,19.54
2018-06-08T04:14:46.264Z,19.52
2018-06-08T04:15:46.457Z,19.62
2018-06-08T04:16:46.626Z,19.66
2018-06-08T04:17:46.810Z,19.67
2018-06-08T04:18:46.992Z,19.79
2018-06-08T04:19:47.421Z,19.94
2018-06-08T04:20:47.356Z,19.89
2018-06-08T04:21:47.541Z,19.99
2018-06-08T04:22:47.721Z,20.00
2018-06-08T04:23:47.910Z,20.07
2018-06-08T04:24:48.097Z,20.06
2018-06-08T04:25:48.348Z,20.13
2018-06-08T04:26:48.457Z,20.13
2018-06-08T04:27:48.641Z,20.09
2018-06-08T04:28:48.823Z,20.10
2018-06-08T04:29:49.024Z,20.10
2018-06-08T04:30:49.189Z,20.13
2018-06-08T04:31:49.364Z,20.11
2018-06-08T04:32:49.603Z,20.16
2018-06-08T04:33:49.726Z,20.11
2018-06-08T04:34:49.909Z,20.16
2018-06-08T04:35:50.096Z,20.11
2018-06-08T04:36:50.295Z,20.16
2018-06-08T04:37:50.472Z,20.09
2018-06-08T04:38:50.651Z,20.09
2018-06-08T04:39:50.831Z,20.04
2018-06-08T04:40:51.018Z,20.07
2018-06-08T04:41:51.200Z,20.18
2018-06-08T04:42:51.378Z,20.19
2018-06-08T04:43:51.565Z,20.14
2018-06-08T04:44:51.747Z,20.14
2018-06-08T04:45:51.927Z,20.07
2018-06-08T04:46:52.115Z,20.19
2018-06-08T04:47:52.297Z,20.14
2018-06-08T04:48:52.499Z,20.07
2018-06-08T04:49:52.681Z,20.10
2018-06-08T04:50:52.866Z,20.19
2018-06-08T04:51:53.049Z,20.16
2018-06-08T04:52:53.235Z,20.24
2018-06-08T04:53:53.416Z,20.09
2018-06-08T04:54:53.598Z,20.09
2018-06-08T04:55:53.784Z,20.13
2018-06-08T04:56:53.980Z,20.13
2018-06-08T04:57:54.175Z,20.09
2018-06-08T04:58:54.345Z,20.14
2018-06-08T04:59:54.527Z,20.18
2018-06-08T05:00:54.716Z,20.11
2018-06-08T05:01:54.914Z,20.11
2018-06-08T05:02:55.086Z,20.11
2018-06-08T05:03:55.270Z,20.13
2018-06-08T05:04:55.460Z,20.06
2018-06-08T05:05:55.653Z,20.03
2018-06-08T05:06:55.831Z,19.96
2018-06-08T05:07:56.014Z,19.91
2018-06-08T05:08:56.195Z,19.96
2018-06-08T05:09:56.379Z,19.91
2018-06-08T05:10:56.572Z,19.94
2018-06-08T05:11:56.743Z,19.89
2018-06-08T05:12:56.926Z,19.99
2018-06-08T05:13:57.103Z,20.02
2018-06-08T05:14:57.572Z,20.09
2018-06-08T05:15:57.477Z,20.10
2018-06-08T05:16:57.676Z,20.07
2018-06-08T05:17:57.841Z,20.04
2018-06-08T05:18:58.027Z,20.07
2018-06-08T05:19:58.216Z,20.07
2018-06-08T05:20:58.398Z,20.09
2018-06-08T05:21:58.875Z,20.09
2018-06-08T05:22:58.772Z,20.18
2018-06-08T05:23:58.966Z,20.28
2018-06-08T05:24:59.139Z,20.29
2018-06-08T05:25:59.330Z,20.44
2018-06-08T05:26:59.509Z,20.47
2018-06-08T05:27:59.688Z,20.47
2018-06-08T05:28:59.873Z,20.55
2018-06-08T05:30:00.062Z,20.60
2018-06-08T05:31:00.240Z,20.63
2018-06-08T05:32:00.434Z,20.62
2018-06-08T05:33:00.603Z,20.62
2018-06-08T05:34:00.788Z,20.82
2018-06-08T05:35:00.975Z,20.88
2018-06-08T05:36:01.156Z,20.72
2018-06-08T05:37:01.338Z,20.65
2018-06-08T05:38:01.527Z,20.77
2018-06-08T05:39:01.713Z,20.70
2018-06-08T05:40:01.894Z,20.87
2018-06-08T05:41:02.090Z,20.92
2018-06-08T05:42:02.258Z,21.00
2018-06-08T05:43:02.446Z,20.93
2018-06-08T05:44:02.629Z,21.00
2018-06-08T05:45:02.808Z,21.05
2018-06-08T05:46:02.988Z,21.09
2018-06-08T05:47:03.178Z,20.96
2018-06-08T05:48:03.370Z,20.92
2018-06-08T05:49:03.551Z,21.05
2018-06-08T05:50:03.739Z,21.06
2018-06-08T05:51:03.919Z,21.05
2018-06-08T05:52:04.116Z,21.05
2018-06-08T05:53:04.294Z,21.05
2018-06-08T05:54:04.474Z,21.02
2018-06-08T05:55:04.662Z,21.06
2018-06-08T05:57:05.032Z,21.30
2018-06-08T05:58:05.212Z,21.42
2018-06-08T05:59:05.395Z,21.52
2018-06-08T06:00:05.592Z,21.51
2018-06-08T06:01:05.798Z,21.52
2018-06-08T06:02:05.956Z,21.52
2018-06-08T06:03:06.140Z,21.62
2018-06-08T06:04:06.317Z,21.60
2018-06-08T06:05:06.496Z,21.70
2018-06-08T06:07:06.859Z,21.72
2018-06-08T06:08:07.089Z,21.76
2018-06-08T06:09:07.231Z,21.76
2018-06-08T06:10:07.414Z,21.62
2018-06-08T06:11:07.594Z,21.54
2018-06-08T06:12:07.798Z,21.46
2018-06-08T06:13:07.964Z,21.58
2018-06-08T06:14:08.153Z,21.57
2018-06-08T06:15:08.331Z,21.73
2018-06-08T06:16:08.511Z,21.85
2018-06-08T06:17:08.698Z,21.85
2018-06-08T06:18:08.887Z,21.91
2018-06-08T06:19:09.067Z,21.88
2018-06-08T06:20:09.265Z,21.69
2018-06-08T06:21:09.440Z,21.79
2018-06-08T06:22:09.621Z,21.80
2018-06-08T06:23:09.802Z,21.83
2018-06-08T06:24:09.988Z,21.75
2018-06-08T06:25:10.175Z,21.93
2018-06-08T06:26:10.360Z,21.96
2018-06-08T06:27:10.634Z,21.96
2018-06-08T06:28:10.731Z,21.96
2018-06-08T06:29:10.913Z,21.96
2018-06-08T06:30:11.096Z,21.98
2018-06-08T06:31:11.282Z,22.14
2018-06-08T06:32:11.467Z,22.18
2018-06-08T06:33:11.654Z,22.32
2018-06-08T06:34:11.833Z,22.28
2018-06-08T06:35:12.019Z,22.35
2018-06-08T06:36:12.201Z,22.48
2018-06-08T06:37:12.389Z,22.57
2018-06-08T06:38:12.583Z,22.70
2018-06-08T06:39:12.765Z,22.72
2018-06-08T06:40:12.951Z,22.93
2018-06-08T06:41:13.135Z,22.96
2018-06-08T06:42:13.322Z,23.12
2018-06-08T06:43:13.502Z,23.34
2018-06-08T06:44:13.693Z,23.25
2018-06-08T06:45:13.875Z,23.39
2018-06-08T06:46:14.054Z,23.44
2018-06-08T06:47:14.242Z,23.31
2018-06-08T06:48:14.426Z,23.44
2018-06-08T06:49:14.616Z,23.31
2018-06-08T06:50:14.800Z,23.32
2018-06-08T06:51:15.005Z,23.20
2018-06-08T06:52:15.170Z,23.36
2018-06-08T06:53:15.422Z,23.43
2018-06-08T06:54:15.547Z,23.55
2018-06-08T06:55:15.730Z,23.71
2018-06-08T06:56:15.905Z,23.74
2018-06-08T06:57:16.090Z,23.91
2018-06-08T06:58:16.306Z,24.10
2018-06-08T06:59:16.472Z,24.18
2018-06-08T07:00:16.673Z,24.17
2018-06-08T07:01:16.857Z,24.05
2018-06-08T07:02:17.038Z,24.01
2018-06-08T07:03:17.229Z,23.99
2018-06-08T07:04:17.403Z,24.03
2018-06-08T07:05:17.585Z,24.06
2018-06-08T07:06:17.774Z,24.13
2018-06-08T07:07:17.961Z,24.17
2018-06-08T07:08:18.133Z,24.14
2018-06-08T07:09:18.322Z,24.05
2018-06-08T07:10:18.514Z,23.96
2018-06-08T07:11:18.706Z,23.99
2018-06-08T07:12:18.869Z,23.96
2018-06-08T07:13:19.062Z,24.02
2018-06-08T07:14:19.249Z,24.06
2018-06-08T07:15:19.431Z,24.03
2018-06-08T07:16:19.612Z,24.06
2018-06-08T07:17:19.801Z,24.01
2018-06-08T07:18:19.991Z,24.17
2018-06-08T07:19:20.170Z,24.17
2018-06-08T07:20:20.355Z,24.36
2018-06-08T07:21:20.543Z,24.39
2018-06-08T07:22:20.748Z,24.35
2018-06-08T07:23:20.915Z,23.96
2018-06-08T07:24:21.099Z,23.99
2018-06-08T07:25:21.288Z,24.10
2018-06-08T07:26:21.480Z,24.16
2018-06-08T07:27:21.667Z,24.20
2018-06-08T07:28:21.856Z,24.32
2018-06-08T07:29:22.045Z,24.42
2018-06-08T07:30:22.233Z,24.48
2018-06-08T07:31:22.417Z,24.57
2018-06-08T07:32:22.605Z,24.60
2018-06-08T07:33:22.789Z,24.45
2018-06-08T07:34:22.974Z,24.68
2018-06-08T07:35:23.159Z,24.69
2018-06-08T07:36:23.349Z,24.74
2018-06-08T07:37:23.538Z,24.80
2018-06-08T07:38:23.716Z,24.85
2018-06-08T07:39:23.906Z,24.89
2018-06-08T07:40:24.099Z,25.04
2018-06-08T07:41:24.275Z,24.95
2018-06-08T07:42:24.462Z,25.01
2018-06-08T07:43:24.654Z,25.03
2018-06-08T07:44:24.830Z,24.85
2018-06-08T07:45:25.020Z,24.89
2018-06-08T07:46:25.207Z,24.86
2018-06-08T07:47:25.394Z,25.06
2018-06-08T07:48:25.581Z,25.08
2018-06-08T07:49:25.770Z,24.98
2018-06-08T07:50:25.984Z,25.08
2018-06-08T07:51:26.140Z,25.06
2018-06-08T07:52:26.333Z,25.28
2018-06-08T07:53:26.518Z,25.21
2018-06-08T07:54:26.693Z,25.43
2018-06-08T07:55:26.886Z,25.59
2018-06-08T07:56:27.067Z,25.72
2018-06-08T07:57:27.257Z,25.78
2018-06-08T07:58:27.442Z,25.87
2018-06-08T07:59:27.634Z,25.87
2018-06-08T08:00:27.829Z,26.05
2018-06-08T08:01:28.006Z,26.02
2018-06-08T08:02:28.192Z,25.98
2018-06-08T08:03:28.385Z,26.06
2018-06-08T08:04:28.572Z,25.87
2018-06-08T08:05:28.757Z,25.78
2018-06-08T08:47:21.547Z,27.75
2018-06-08T08:48:21.733Z,27.37
2018-06-08T08:49:21.916Z,27.15
2018-06-08T08:50:22.110Z,27.00
2018-06-08T08:51:22.289Z,27.07
2018-06-08T08:52:22.478Z,27.36
2018-06-08T08:53:22.687Z,27.80
2018-06-08T08:54:22.876Z,27.78
2018-06-08T08:55:24.058Z,28.12
2018-06-08T08:56:23.251Z,28.54
2018-06-08T08:57:23.428Z,28.57
2018-06-08T08:58:23.631Z,28.52
2018-06-08T08:59:23.808Z,28.48
2018-06-08T09:00:23.992Z,28.79
2018-06-08T09:01:24.178Z,29.12
2018-06-08T09:02:24.368Z,29.23
2018-06-08T09:03:24.553Z,29.10
2018-06-08T09:04:24.741Z,28.51
2018-06-08T09:05:24.931Z,28.32
2018-06-08T09:06:25.127Z,28.45
2018-06-08T09:07:25.315Z,28.29
2018-06-08T09:08:25.505Z,28.17
2018-06-08T09:09:25.688Z,28.42
2018-06-08T09:10:25.879Z,28.75
2018-06-08T09:11:26.128Z,28.15
2018-06-08T09:12:26.270Z,28.29
2018-06-08T09:13:26.462Z,28.04
2018-06-08T09:14:26.655Z,28.51
2018-06-08T09:15:26.875Z,28.41
2018-06-08T09:16:27.030Z,28.41
2018-06-08T09:17:27.225Z,28.29
2018-06-08T09:18:27.418Z,28.54
2018-06-08T09:19:27.851Z,28.67
2018-06-08T09:20:27.781Z,28.98
2018-06-08T09:21:27.977Z,29.20
2018-06-08T09:22:28.177Z,29.41
2018-06-08T09:23:28.348Z,29.73
2018-06-08T09:24:28.546Z,29.91
2018-06-08T09:25:28.729Z,28.64
2018-06-08T09:26:28.919Z,28.85
2018-06-08T09:27:29.103Z,29.16
2018-06-08T09:28:29.291Z,29.19
2018-06-08T09:29:29.486Z,29.31
2018-06-08T09:30:29.676Z,29.42
2018-06-08T09:31:29.853Z,29.29
2018-06-08T09:32:30.044Z,28.93
2018-06-08T09:33:30.226Z,29.16
2018-06-08T09:34:30.409Z,29.17
2018-06-08T09:35:30.607Z,29.13
2018-06-08T09:36:30.898Z,29.16
2018-06-08T09:37:30.955Z,29.35
2018-06-08T09:38:31.161Z,29.56
2018-06-08T09:39:31.354Z,29.56
2018-06-08T09:40:31.533Z,29.29
2018-06-08T09:41:31.728Z,29.24
2018-06-08T09:42:31.910Z,29.26
2018-06-08T09:43:32.104Z,29.45
2018-06-08T09:44:32.297Z,29.57
2018-06-08T09:45:32.476Z,29.93
2018-06-08T09:46:32.667Z,29.93
2018-06-08T09:47:32.857Z,29.88
2018-06-08T09:48:33.053Z,29.65
2018-06-08T09:49:33.236Z,29.45
2018-06-08T09:50:33.420Z,29.50
2018-06-08T09:51:33.610Z,29.71
2018-06-08T09:52:33.807Z,30.03
2018-06-08T09:53:33.978Z,30.37
2018-06-08T09:54:34.179Z,30.34
2018-06-08T09:55:34.359Z,30.35
2018-06-08T09:56:34.543Z,30.61
2018-06-08T09:57:34.750Z,30.21
2018-06-08T09:58:34.936Z,29.53
2018-06-08T09:59:35.139Z,28.96
2018-06-08T10:00:35.316Z,28.79
2018-06-08T10:01:35.510Z,29.13
2018-06-08T10:02:35.705Z,29.22
2018-06-08T10:03:35.895Z,29.57
2018-06-08T10:04:36.086Z,29.79
2018-06-08T10:05:36.274Z,30.13
2018-06-08T10:06:36.465Z,30.59
2018-06-08T10:07:36.656Z,30.84
2018-06-08T10:08:36.858Z,31.10
2018-06-08T10:09:37.044Z,31.52
2018-06-08T10:10:37.240Z,31.47
2018-06-08T10:11:37.432Z,31.44
2018-06-08T10:12:37.626Z,31.43
2018-06-08T10:13:37.833Z,31.59
2018-06-08T10:14:38.005Z,31.64
2018-06-08T10:15:38.185Z,31.77
2018-06-08T10:16:38.391Z,31.71
2018-06-08T10:17:38.565Z,31.81
2018-06-08T10:18:38.766Z,31.73
2018-06-08T10:19:38.947Z,31.65
2018-06-08T10:20:39.132Z,31.73
2018-06-08T10:21:39.330Z,31.20
2018-06-08T10:22:39.517Z,30.83
2018-06-08T10:23:39.699Z,31.14
2018-06-08T10:24:39.905Z,31.15
2018-06-08T10:25:40.081Z,30.62
2018-06-08T10:26:40.282Z,30.13
2018-06-08T10:27:40.470Z,30.16
2018-06-08T10:29:40.846Z,30.39
2018-06-08T10:30:41.040Z,30.62
2018-06-08T10:31:41.230Z,30.88
2018-06-08T10:32:41.422Z,30.61
2018-06-08T10:33:41.604Z,30.57
2018-06-08T10:34:41.795Z,30.69
2018-06-08T10:35:41.994Z,30.50
2018-06-08T10:36:42.188Z,30.59
2018-06-08T10:37:42.377Z,30.70
2018-06-08T10:38:42.566Z,30.81
2018-06-08T10:39:42.755Z,30.84
2018-06-08T10:40:42.935Z,31.06
2018-06-08T10:41:43.130Z,31.25
2018-06-08T10:42:43.316Z,30.53
2018-06-08T10:43:43.495Z,29.36
2018-06-08T10:44:43.692Z,29.13
2018-06-08T10:45:43.882Z,29.42
2018-06-08T10:46:44.123Z,29.88
2018-06-08T10:47:44.268Z,30.00
2018-06-08T10:48:44.448Z,30.19
2018-06-08T10:49:44.648Z,30.46
2018-06-08T10:50:44.845Z,30.57
2018-06-08T10:51:45.031Z,30.65
2018-06-08T10:52:45.235Z,30.70
2018-06-08T10:53:45.397Z,31.00
2018-06-08T10:54:45.587Z,31.17
2018-06-08T10:55:45.795Z,31.31
2018-06-08T10:56:45.979Z,31.33
2018-06-08T10:57:46.163Z,31.46
2018-06-08T10:58:46.353Z,31.40
2018-06-08T10:59:46.541Z,31.52
2018-06-08T11:00:46.980Z,31.55
2018-06-08T11:01:46.944Z,31.62
2018-06-08T11:02:47.128Z,31.59
2018-06-08T11:03:47.322Z,31.64
2018-06-08T11:04:47.475Z,31.42
2018-06-08T11:05:47.664Z,31.44
2018-06-08T11:06:47.860Z,31.33
2018-06-08T11:07:48.051Z,31.40
2018-06-08T11:08:48.240Z,31.42
2018-06-08T11:09:48.438Z,31.44
2018-06-08T11:10:48.615Z,31.49
2018-06-08T11:11:48.804Z,31.40
2018-06-08T11:12:48.992Z,31.03
2018-06-08T11:13:49.185Z,30.90
2018-06-08T11:14:49.382Z,31.03
2018-06-08T11:15:49.563Z,31.00
2018-06-08T11:16:49.751Z,31.12
2018-06-08T11:17:49.940Z,31.25
2018-06-08T11:18:50.129Z,31.64
2018-06-08T11:19:50.343Z,31.77
2018-06-08T11:20:50.532Z,31.73
2018-06-08T11:21:50.947Z,31.61
2018-06-08T11:22:50.894Z,31.56
2018-06-08T11:23:51.090Z,30.97
2018-06-08T11:24:51.293Z,31.39
2018-06-08T11:25:51.470Z,31.49
2018-06-08T11:26:51.696Z,31.43
2018-06-08T11:27:51.853Z,31.56
2018-06-08T11:28:52.050Z,31.52
2018-06-08T11:29:52.465Z,31.47
2018-06-08T11:30:52.422Z,31.51
2018-06-08T11:31:52.618Z,31.58
2018-06-08T11:32:52.813Z,31.74
2018-06-08T11:33:52.962Z,31.49
2018-06-08T11:34:53.157Z,31.43
2018-06-08T11:35:53.351Z,31.25
2018-06-08T11:36:53.540Z,31.02
2018-06-08T11:37:53.727Z,30.92
2018-06-08T11:38:53.922Z,30.69
2018-06-08T11:39:54.112Z,30.70
2018-06-08T11:40:54.315Z,30.57
2018-06-08T11:41:54.497Z,30.48
2018-06-08T11:43:54.875Z,30.69
2018-06-08T11:44:55.108Z,30.83
2018-06-08T11:45:55.285Z,30.85
2018-06-08T11:46:55.447Z,30.91
2018-06-08T11:47:55.642Z,30.61
2018-06-08T11:48:55.834Z,30.40
2018-06-08T11:49:56.026Z,30.43
2018-06-08T11:50:56.212Z,30.63
2018-06-08T11:51:56.409Z,30.73
2018-06-08T11:52:56.579Z,30.90
2018-06-08T11:53:56.769Z,30.80
2018-06-08T11:54:56.966Z,30.99
2018-06-08T11:55:57.147Z,31.15
2018-06-08T11:56:57.344Z,31.31
2018-06-08T11:57:57.530Z,31.17
2018-06-08T11:58:57.712Z,31.29
2018-06-08T11:59:57.913Z,31.54
2018-06-08T12:00:58.095Z,31.49
2018-06-08T12:01:58.285Z,31.51
2018-06-08T12:02:58.479Z,31.47
2018-06-08T12:03:58.666Z,31.58
2018-06-08T12:04:58.851Z,30.16
2018-06-08T12:05:59.048Z,29.61
2018-06-08T12:06:59.234Z,29.75
2018-06-08T12:07:59.430Z,29.86
2018-06-08T12:08:59.626Z,29.94
2018-06-08T12:09:59.803Z,30.09
2018-06-08T12:11:00.008Z,30.24
2018-06-08T12:12:00.183Z,30.32
2018-06-08T12:13:00.376Z,30.16
2018-06-08T12:14:00.572Z,30.08
2018-06-08T12:15:00.750Z,29.65
2018-06-08T12:16:00.947Z,29.82
2018-06-08T12:17:01.153Z,30.18
2018-06-08T12:18:01.318Z,30.21
2018-06-08T12:19:01.505Z,30.43
2018-06-08T12:20:01.691Z,30.61
2018-06-08T12:21:01.881Z,30.66
2018-06-08T12:22:02.067Z,30.87
2018-06-08T12:23:02.259Z,30.69
2018-06-08T12:24:02.447Z,30.70
2018-06-08T12:25:02.641Z,30.77
2018-06-08T12:26:02.824Z,30.00
2018-06-08T12:27:03.011Z,29.90
2018-06-08T12:28:03.202Z,30.06
2018-06-08T12:29:03.389Z,30.09
2018-06-08T12:30:03.572Z,30.40
2018-06-08T12:31:03.767Z,30.44
2018-06-08T12:32:03.958Z,30.19
2018-06-08T12:33:04.147Z,30.40
2018-06-08T12:34:04.332Z,30.59
2018-06-08T12:35:04.523Z,30.66
2018-06-08T12:36:04.713Z,30.75
2018-06-08T12:37:04.900Z,30.51
2018-06-08T12:38:05.088Z,30.19
2018-06-08T12:39:05.276Z,30.44
2018-06-08T12:40:05.459Z,30.46
2018-06-08T12:41:05.661Z,30.18
2018-06-08T12:42:05.855Z,30.53
2018-06-08T12:43:06.040Z,30.47
2018-06-08T12:44:06.227Z,30.30
2018-06-08T12:45:06.410Z,30.44
2018-06-08T12:47:06.800Z,30.37
2018-06-08T12:48:06.978Z,30.03
2018-06-08T12:49:07.186Z,29.88
2018-06-08T12:50:07.354Z,30.02
2018-06-08T12:51:07.540Z,30.13
2018-06-08T12:52:07.732Z,30.54
2018-06-08T12:53:07.916Z,30.53
2018-06-08T12:54:08.104Z,29.98
2018-06-08T12:55:08.294Z,30.28
2018-06-08T12:56:08.488Z,30.50
2018-06-08T12:57:08.671Z,30.65
2018-06-08T12:58:08.863Z,30.78
2018-06-08T12:59:09.051Z,30.72
2018-06-08T13:00:09.237Z,30.23
2018-06-08T13:01:09.422Z,29.90
2018-06-08T13:02:09.610Z,29.97
2018-06-08T13:03:09.823Z,30.08
2018-06-08T13:04:09.988Z,30.18
2018-06-08T13:05:10.184Z,30.16
2018-06-08T13:06:10.376Z,30.31
2018-06-08T13:07:10.577Z,30.43
2018-06-08T13:08:10.746Z,30.40
2018-06-08T13:09:11.066Z,30.48
2018-06-08T13:10:11.240Z,30.61
2018-06-08T13:11:11.713Z,30.62
2018-06-08T13:12:11.707Z,30.51
2018-06-08T13:13:11.790Z,30.57
2018-06-08T13:14:11.999Z,30.73
2018-06-08T13:15:12.197Z,30.70
2018-06-08T13:16:12.470Z,30.85
2018-06-08T13:17:12.563Z,30.91
2018-06-08T13:18:13.039Z,30.92
2018-06-08T13:19:12.939Z,30.81
2018-06-08T13:20:13.134Z,30.59
2018-06-08T13:21:13.354Z,30.25
2018-06-08T13:22:13.515Z,30.12
2018-06-08T13:23:13.706Z,29.66
2018-06-08T13:24:13.898Z,29.86
2018-06-08T13:25:14.097Z,29.90
2018-06-08T13:26:14.265Z,29.63
2018-06-08T13:27:14.461Z,29.47
2018-06-08T13:28:14.651Z,29.56
2018-06-08T13:29:14.921Z,29.82
2018-06-08T13:30:15.095Z,29.90
2018-06-08T13:31:15.292Z,30.03
2018-06-08T13:32:15.516Z,30.08
2018-06-08T13:33:15.722Z,30.28
2018-06-08T13:34:15.846Z,30.39
2018-06-08T13:35:16.062Z,30.31
2018-06-08T13:36:16.518Z,30.21
2018-06-08T13:37:16.490Z,30.35
2018-06-08T13:38:16.639Z,30.31
2018-06-08T13:39:16.854Z,30.19
2018-06-08T13:40:17.002Z,30.09
2018-06-08T13:41:17.190Z,29.76
2018-06-08T13:42:17.373Z,29.79
2018-06-08T13:43:17.575Z,29.34